Time;durP1;ratioP1;P1;durP2;ratioP2;P2;SDS_P1;SDS_P2;PMS_P1;PMS_P2;Temp;Humidity;BMP_temperature;BMP_pressure;BME280_temperature;BME280_humidity;BME280_pressure;Samples;Min_cycle;Max_cycle;Signal;HPM_P1;HPM_P2
2023/10/10 00:00:55;;;;;;;8.43;6.70;;;10.40;99.90;;;;;;6463161;23;20000;-88
2023/10/10 00:03:27;;;;;;;8.45;6.32;;;10.30;99.90;;;;;;6435642;23;20481;-90
2023/10/10 00:06:08;;;;;;;13.65;7.00;;;10.60;99.90;;;;;;6461359;23;20383;-87
2023/10/10 00:08:43;;;;;;;12.05;7.15;;;10.40;99.90;;;;;;6463054;23;20000;-80
2023/10/10 00:11:15;;;;;;;9.70;7.30;;;10.60;99.90;;;;;;6462913;23;20000;-84
2023/10/10 00:13:52;;;;;;;10.63;8.45;;;10.60;99.90;;;;;;6461075;23;20004;-83
2023/10/10 00:16:40;;;;;;;11.07;8.50;;;10.10;99.90;;;;;;6436452;23;20000;-79
2023/10/10 00:19:21;;;;;;;12.15;7.88;;;10.10;99.90;;;;;;6462671;23;20133;-86
2023/10/10 00:21:54;;;;;;;13.32;8.65;;;10.30;99.90;;;;;;6461194;23;20057;-79
2023/10/10 00:24:30;;;;;;;10.00;7.57;;;10.40;99.90;;;;;;6462555;23;20328;-85
2023/10/10 00:27:15;;;;;;;11.38;7.60;;;10.50;99.90;;;;;;6435881;23;20023;-79
2023/10/10 00:29:45;;;;;;;10.50;8.00;;;10.50;99.90;;;;;;6462476;23;19996;-79
2023/10/10 00:32:22;;;;;;;10.70;7.28;;;10.40;99.90;;;;;;6461052;22;20008;-89
2023/10/10 00:34:55;;;;;;;8.90;7.10;;;10.50;99.90;;;;;;6436103;23;20103;-80
2023/10/10 00:37:29;;;;;;;13.15;8.52;;;10.50;99.90;;;;;;6462947;23;20004;-90
2023/10/10 00:40:07;;;;;;;9.07;7.63;;;10.40;99.90;;;;;;6436014;23;20004;-90
2023/10/10 00:42:41;;;;;;;9.93;7.63;;;10.30;99.90;;;;;;6462612;23;20194;-81
2023/10/10 00:45:14;;;;;;;10.00;7.70;;;10.40;99.90;;;;;;6462429;23;20471;-85
2023/10/10 00:47:53;;;;;;;9.68;7.50;;;10.70;99.90;;;;;;6462821;23;20004;-89
2023/10/10 00:50:24;;;;;;;11.63;7.63;;;10.40;99.90;;;;;;6462634;23;20003;-87
2023/10/10 00:53:00;;;;;;;9.52;7.75;;;10.20;99.90;;;;;;6462267;23;20004;-89
2023/10/10 00:55:36;;;;;;;10.25;8.23;;;10.50;99.90;;;;;;6435679;23;20026;-87
2023/10/10 00:58:08;;;;;;;12.48;8.27;;;10.40;99.90;;;;;;6462377;23;19996;-82
2023/10/10 01:00:44;;;;;;;9.55;7.85;;;10.40;99.90;;;;;;6460920;23;20333;-81
2023/10/10 01:03:21;;;;;;;8.38;7.38;;;10.40;99.90;;;;;;6435225;23;20070;-88
2023/10/10 01:05:55;;;;;;;8.00;7.18;;;10.40;99.90;;;;;;6460610;23;20047;-81
2023/10/10 01:08:30;;;;;;;10.25;7.70;;;10.60;99.90;;;;;;6435299;23;20483;-80
2023/10/10 01:11:05;;;;;;;10.38;8.07;;;10.50;99.90;;;;;;6462136;23;20075;-87
2023/10/10 01:13:35;;;;;;;8.85;7.72;;;10.60;99.90;;;;;;6462005;23;20417;-85
2023/10/10 01:16:06;;;;;;;12.85;8.50;;;10.50;99.90;;;;;;6460244;23;20004;-81
2023/10/10 01:18:51;;;;;;;10.77;8.38;;;10.30;99.90;;;;;;6462012;23;20000;-88
2023/10/10 01:21:30;;;;;;;12.55;9.25;;;10.60;99.90;;;;;;6458259;23;20008;-80
2023/10/10 01:24:22;;;;;;;12.23;8.07;;;10.40;99.90;;;;;;6461755;23;20447;-80
2023/10/10 01:26:53;;;;;;;10.32;7.97;;;10.40;99.90;;;;;;6460882;23;20038;-86
2023/10/10 01:31:58;;;;;;;10.57;8.65;;;10.60;99.90;;;;;;6461865;22;20004;-78
2023/10/10 01:34:39;;;;;;;10.55;8.60;;;10.30;99.90;;;;;;6460037;23;20012;-89
2023/10/10 01:37:18;;;;;;;8.45;7.40;;;10.30;99.90;;;;;;6462043;23;20001;-85
2023/10/10 01:42:59;;;;;;;13.43;9.38;;;10.20;99.90;;;;;;6472543;23;20023;-84
2023/10/10 01:45:30;;;;;;;12.35;8.88;;;10.10;99.90;;;;;;6435057;23;20012;-88
2023/10/10 01:48:08;;;;;;;10.73;8.02;;;10.20;99.90;;;;;;6434369;23;20011;-86
2023/10/10 01:50:39;;;;;;;8.60;7.10;;;10.30;99.90;;;;;;6460235;23;20328;-88
2023/10/10 01:53:10;;;;;;;8.55;7.25;;;10.30;99.90;;;;;;6461793;23;20416;-82
2023/10/10 01:55:41;;;;;;;10.73;7.88;;;10.40;99.90;;;;;;6434586;23;20004;-80
2023/10/10 01:58:13;;;;;;;10.23;7.88;;;10.50;99.90;;;;;;6434881;23;20015;-80
2023/10/10 02:00:46;;;;;;;9.63;8.32;;;10.40;99.90;;;;;;6460226;23;20008;-87
2023/10/10 02:03:18;;;;;;;11.75;7.40;;;9.90;99.90;;;;;;6459713;23;20073;-85
2023/10/10 02:05:55;;;;;;;12.63;8.05;;;9.80;99.90;;;;;;6461470;23;20092;-87
2023/10/10 02:08:26;;;;;;;12.80;10.50;;;10.20;99.90;;;;;;6461690;23;20008;-80
2023/10/10 02:11:02;;;;;;;10.65;9.38;;;10.40;99.90;;;;;;6461318;23;20000;-79
2023/10/10 02:13:33;;;;;;;12.50;9.00;;;10.60;99.90;;;;;;6434581;23;20012;-82
2023/10/10 02:16:04;;;;;;;9.75;8.35;;;10.60;99.90;;;;;;6461417;23;20000;-83
2023/10/10 02:18:44;;;;;;;12.05;7.43;;;10.70;99.90;;;;;;6434577;23;20004;-85
2023/10/10 02:21:16;;;;;;;14.10;9.95;;;10.60;99.90;;;;;;6459586;23;20008;-84
2023/10/10 02:23:53;;;;;;;10.60;8.13;;;10.70;99.90;;;;;;6459975;23;20011;-86
2023/10/10 02:26:28;;;;;;;10.88;7.85;;;10.80;99.90;;;;;;6461727;23;20012;-85
2023/10/10 02:29:20;;;;;;;10.52;8.38;;;11.00;99.90;;;;;;6434901;23;20016;-89
2023/10/10 02:32:03;;;;;;;10.13;7.70;;;11.00;99.90;;;;;;6461471;22;20004;-87
2023/10/10 02:34:36;;;;;;;11.48;8.00;;;10.90;99.90;;;;;;6461464;23;20000;-79
2023/10/10 02:40:15;;;;;;;11.55;7.90;;;11.10;99.90;;;;;;6415050;23;20006;-85
2023/10/10 02:43:10;;;;;;;13.30;8.05;;;10.80;99.90;;;;;;6461649;23;20007;-84
2023/10/10 02:45:44;;;;;;;13.02;8.48;;;11.10;99.90;;;;;;6463320;23;20333;-88
2023/10/10 02:48:20;;;;;;;11.82;8.80;;;11.10;99.90;;;;;;6463505;23;20003;-88
2023/10/10 02:50:51;;;;;;;13.15;8.10;;;11.30;99.90;;;;;;6461785;23;20099;-89
2023/10/10 02:53:22;;;;;;;12.55;8.93;;;11.50;99.90;;;;;;6463653;23;20436;-80
2023/10/10 02:55:53;;;;;;;10.73;7.47;;;11.30;99.90;;;;;;6463405;23;20086;-84
2023/10/10 02:58:28;;;;;;;15.30;8.77;;;11.30;99.90;;;;;;6461817;23;20043;-79
2023/10/10 03:00:58;;;;;;;14.00;8.38;;;11.00;99.90;;;;;;6463425;23;20000;-81
2023/10/10 03:03:29;;;;;;;16.20;9.98;;;11.40;99.90;;;;;;6461297;23;20020;-80
2023/10/10 03:06:06;;;;;;;12.45;10.43;;;11.20;99.90;;;;;;6462617;23;20019;-82
2023/10/10 03:08:51;;;;;;;12.02;9.15;;;11.30;99.90;;;;;;6463167;23;19996;-82
2023/10/10 03:11:52;;;;;;;20.88;15.52;;;11.20;99.90;;;;;;6462868;23;20425;-80
2023/10/10 03:14:28;;;;;;;15.88;9.73;;;11.00;99.90;;;;;;6436301;23;20013;-79
2023/10/10 03:17:05;;;;;;;14.32;8.80;;;11.20;99.90;;;;;;6463053;23;20000;-87
2023/10/10 03:19:38;;;;;;;15.30;9.75;;;11.30;99.90;;;;;;6436402;23;20026;-88
2023/10/10 03:22:28;;;;;;;17.63;12.50;;;11.50;99.90;;;;;;6463039;23;20428;-85
2023/10/10 03:25:21;;;;;;;19.27;13.90;;;11.50;99.90;;;;;;6436253;23;20011;-88
2023/10/10 03:27:55;;;;;;;16.48;12.65;;;11.50;99.90;;;;;;6463254;23;20007;-83
2023/10/10 03:30:50;;;;;;;14.93;12.93;;;11.50;99.90;;;;;;6436320;23;20004;-86
2023/10/10 03:33:35;;;;;;;14.30;12.10;;;11.50;99.90;;;;;;6462872;22;20012;-84
2023/10/10 05:25:44;;;;;;;19.63;15.25;;;12.90;99.90;;;;;;6399391;23;20051;-86
2023/10/10 05:28:15;;;;;;;17.45;13.82;;;13.30;99.90;;;;;;6397545;23;20422;-81
2023/10/10 05:30:46;;;;;;;18.17;13.40;;;13.40;99.90;;;;;;6399364;23;20075;-86
2023/10/10 05:33:19;;;;;;;39.85;28.40;;;13.80;99.90;;;;;;6372927;23;20059;-86
2023/10/10 05:35:57;;;;;;;32.90;20.33;;;13.90;99.90;;;;;;6399353;23;20005;-89
2023/10/10 05:38:28;;;;;;;28.77;15.73;;;14.10;99.90;;;;;;6372762;23;20013;-91
2023/10/10 05:41:02;;;;;;;15.90;10.55;;;14.50;99.90;;;;;;6399090;23;19996;-85
2023/10/10 05:43:34;;;;;;;17.90;12.82;;;14.50;99.90;;;;;;6372848;23;20005;-82
2023/10/10 05:46:05;;;;;;;15.52;13.38;;;14.80;99.90;;;;;;6399222;23;20091;-90
2023/10/10 05:48:36;;;;;;;17.88;14.10;;;14.70;99.90;;;;;;6372934;23;20005;-85
2023/10/10 05:51:09;;;;;;;17.85;15.80;;;14.50;99.90;;;;;;6398899;23;20005;-88
2023/10/10 05:53:40;;;;;;;34.53;29.15;;;14.70;99.90;;;;;;6398834;23;20593;-85
2023/10/10 05:56:15;;;;;;;20.45;15.65;;;15.00;99.90;;;;;;6398944;23;20005;-83
2023/10/10 05:58:47;;;;;;;17.70;16.00;;;15.30;99.90;;;;;;6398966;23;20035;-88
2023/10/10 06:01:18;;;;;;;34.20;27.92;;;15.30;99.90;;;;;;6372775;23;20501;-88
2023/10/10 06:03:51;;;;;;;18.10;15.80;;;15.20;99.90;;;;;;6382485;23;20468;-89
2023/10/10 06:06:21;;;;;;;20.48;18.58;;;15.50;99.90;;;;;;6397473;23;20016;-82
2023/10/10 06:09:00;;;;;;;18.35;16.40;;;15.70;99.90;;;;;;6398593;23;20695;-88
2023/10/10 06:11:34;;;;;;;17.95;15.75;;;15.80;99.90;;;;;;6397748;23;20009;-82
2023/10/10 06:14:04;;;;;;;19.58;11.77;;;15.90;99.90;;;;;;6397385;23;20005;-88
2023/10/10 06:16:36;;;;;;;19.27;12.38;;;15.90;99.90;;;;;;6397502;23;20021;-88
2023/10/10 06:19:06;;;;;;;15.82;13.98;;;16.00;99.90;;;;;;6400594;23;20056;-85
2023/10/10 06:21:45;;;;;;;19.30;14.60;;;16.30;99.90;;;;;;6399769;23;20101;-87
2023/10/10 06:24:16;;;;;;;17.50;12.27;;;16.40;99.90;;;;;;6399764;23;20032;-89
2023/10/10 06:26:47;;;;;;;15.55;12.30;;;16.50;99.90;;;;;;6399647;23;20350;-85
2023/10/10 06:29:18;;;;;;;18.45;10.60;;;16.70;99.90;;;;;;6401136;23;20004;-87
2023/10/10 06:31:49;;;;;;;17.27;10.15;;;16.70;99.90;;;;;;6401088;23;20005;-81
2023/10/10 06:34:21;;;;;;;24.13;11.38;;;16.80;99.90;;;;;;6399100;23;20009;-88
2023/10/10 06:36:54;;;;;;;19.75;12.25;;;16.90;99.90;;;;;;6400778;23;20007;-89
2023/10/10 06:39:32;;;;;;;24.70;13.13;;;17.10;99.90;;;;;;6400885;23;20005;-86
2023/10/10 06:42:03;;;;;;;25.92;13.02;;;17.10;99.90;;;;;;6399488;23;20001;-83
2023/10/10 06:44:39;;;;;;;27.40;14.20;;;17.30;99.90;;;;;;6400844;23;20418;-91
2023/10/10 06:47:11;;;;;;;24.23;13.73;;;17.30;99.90;;;;;;6399340;23;20362;-80
2023/10/10 06:49:53;;;;;;;20.95;13.10;;;17.50;99.90;;;;;;6400828;23;20013;-82
2023/10/10 06:52:30;;;;;;;21.27;10.43;;;17.50;99.90;;;;;;6400678;23;20376;-83
2023/10/10 06:55:10;;;;;;;16.20;10.55;;;17.60;99.90;;;;;;6400786;23;20326;-82
2023/10/10 06:57:51;;;;;;;29.02;12.10;;;17.80;99.90;;;;;;6400732;23;20005;-83
2023/10/10 07:00:28;;;;;;;19.52;13.23;;;17.70;99.90;;;;;;6400784;23;20082;-82
2023/10/10 07:02:59;;;;;;;18.52;12.20;;;17.70;99.90;;;;;;6400266;23;20092;-83
2023/10/10 07:05:33;;;;;;;19.77;12.57;;;17.90;99.90;;;;;;6400514;23;20009;-80
2023/10/10 07:08:19;;;;;;;20.30;12.95;;;18.10;99.90;;;;;;6374234;23;20016;-80
2023/10/10 07:10:50;;;;;;;23.15;13.48;;;18.10;99.90;;;;;;6400834;23;20407;-80
2023/10/10 07:13:29;;;;;;;22.67;12.90;;;18.40;99.90;;;;;;6400564;23;20005;-80
2023/10/10 07:15:59;;;;;;;27.58;13.93;;;18.40;99.90;;;;;;6400618;23;20003;-80
2023/10/10 07:18:32;;;;;;;21.42;12.95;;;18.40;99.90;;;;;;6400147;23;20017;-80
2023/10/10 07:21:30;;;;;;;16.17;11.32;;;18.50;99.90;;;;;;6400476;23;20050;-80
2023/10/10 07:24:13;;;;;;;17.25;10.93;;;18.60;99.90;;;;;;6400656;23;20005;-80
2023/10/10 07:26:58;;;;;;;22.20;11.00;;;18.70;99.90;;;;;;6399055;23;20075;-80
2023/10/10 07:32:29;;;;;;;15.82;11.55;;;18.80;99.90;;;;;;6358940;23;20016;-79
2023/10/10 07:35:00;;;;;;;17.58;14.93;;;19.00;99.90;;;;;;6400392;23;20140;-80
2023/10/10 07:37:31;;;;;;;21.65;19.67;;;19.10;99.90;;;;;;6400547;23;20434;-80
2023/10/10 07:40:38;;;;;;;24.80;20.90;;;19.00;99.90;;;;;;6400292;23;20030;-80
2023/10/10 07:42:59;;;;;;;27.00;24.38;;;19.10;99.90;;;;;;6396160;23;20008;-80
2023/10/10 07:45:33;;;;;;;25.50;23.23;;;19.20;99.90;;;;;;6400018;23;20036;-80
2023/10/10 07:50:48;;;;;;;17.67;15.82;;;19.70;99.90;;;;;;6400227;23;20441;-80
2023/10/10 07:53:20;;;;;;;15.77;14.15;;;19.60;99.90;;;;;;6399982;23;19997;-80
2023/10/10 07:55:59;;;;;;;17.25;13.88;;;19.70;99.90;;;;;;6400063;23;20346;-80
2023/10/10 07:58:49;;;;;;;17.37;13.20;;;19.90;99.90;;;;;;6400102;23;20075;-80
2023/10/10 08:01:20;;;;;;;15.25;12.77;;;19.80;99.90;;;;;;6400447;23;20001;-80
2023/10/10 08:03:51;;;;;;;14.75;11.90;;;20.10;99.90;;;;;;6399718;23;20028;-80
2023/10/10 08:06:22;;;;;;;17.27;11.73;;;20.20;99.90;;;;;;6373200;23;20045;-81
2023/10/10 08:09:18;;;;;;;12.18;9.55;;;20.30;99.90;;;;;;6400077;23;19997;-80
2023/10/10 08:11:54;;;;;;;11.07;8.38;;;20.10;99.90;;;;;;6400041;23;20001;-80
2023/10/10 08:14:31;;;;;;;26.38;9.88;;;20.60;99.90;;;;;;6400044;23;20318;-80
2023/10/10 08:17:04;;;;;;;11.63;9.07;;;20.70;99.90;;;;;;6399992;23;20015;-80
2023/10/10 08:19:35;;;;;;;12.15;7.07;;;20.70;99.90;;;;;;6373484;23;20052;-80
2023/10/10 08:22:12;;;;;;;11.25;6.40;;;20.70;99.90;;;;;;6399921;23;20005;-80
2023/10/10 08:24:43;;;;;;;13.85;6.47;;;20.60;99.90;;;;;;6373541;23;20055;-80
2023/10/10 08:27:14;;;;;;;11.70;6.38;;;20.70;99.90;;;;;;6399458;23;20029;-80
2023/10/10 08:29:47;;;;;;;13.65;7.65;;;20.90;99.90;;;;;;6399750;23;20108;-80
2023/10/10 08:32:17;;;;;;;9.68;7.32;;;21.00;99.90;;;;;;6399900;23;20032;-79
2023/10/10 08:34:48;;;;;;;10.88;7.20;;;21.20;99.90;;;;;;6399800;23;20425;-79
2023/10/10 08:37:19;;;;;;;9.73;8.18;;;21.60;99.90;;;;;;6399432;23;20001;-79
2023/10/10 08:39:50;;;;;;;11.30;10.18;;;21.40;99.90;;;;;;6399828;23;20163;-80
2023/10/10 08:42:22;;;;;;;11.25;10.05;;;21.10;99.90;;;;;;6399182;23;20001;-80
2023/10/10 08:44:56;;;;;;;13.63;10.45;;;21.60;99.90;;;;;;6399310;23;20425;-80
2023/10/10 08:47:32;;;;;;;13.23;9.60;;;21.60;99.90;;;;;;6399195;23;20016;-80
2023/10/10 08:50:03;;;;;;;19.98;10.75;;;21.40;99.90;;;;;;6373132;23;20005;-80
2023/10/10 08:52:38;;;;;;;17.75;10.98;;;21.10;99.90;;;;;;6399182;23;20032;-80
2023/10/10 08:55:10;;;;;;;13.02;9.82;;;21.30;99.90;;;;;;6399716;23;20051;-80
2023/10/10 08:57:43;;;;;;;13.15;10.82;;;21.40;99.90;;;;;;6399484;23;20012;-80
2023/10/10 09:00:17;;;;;;;13.27;10.30;;;21.60;99.90;;;;;;6373197;23;20329;-80
2023/10/10 09:02:51;;;;;;;10.80;9.45;;;21.30;99.90;;;;;;6372885;23;20374;-80
2023/10/10 09:05:24;;;;;;;16.73;10.35;;;21.50;99.90;;;;;;6399283;23;20013;-80
2023/10/10 09:08:05;;;;;;;13.90;9.30;;;21.60;99.90;;;;;;6399359;23;20456;-80
2023/10/10 09:10:39;;;;;;;14.60;8.93;;;21.50;99.90;;;;;;6399535;23;19997;-81
2023/10/10 09:13:10;;;;;;;13.98;8.73;;;21.80;99.90;;;;;;6399330;23;20005;-80
2023/10/10 09:15:55;;;;;;;8.65;7.63;;;22.10;99.90;;;;;;6398695;23;20071;-78
2023/10/10 09:18:26;;;;;;;12.40;7.88;;;22.40;99.90;;;;;;6399213;23;20004;-79
2023/10/10 09:21:30;;;;;;;12.60;8.02;;;22.00;99.90;;;;;;6398741;23;20004;-80
2023/10/10 09:24:26;;;;;;;19.23;11.80;;;22.30;99.90;;;;;;6399242;23;20009;-78
2023/10/10 09:26:58;;;;;;;14.95;9.65;;;22.60;99.90;;;;;;6398607;23;20013;-79
2023/10/10 09:29:34;;;;;;;13.13;9.95;;;22.20;99.90;;;;;;6372522;23;20055;-79
2023/10/10 09:32:05;;;;;;;20.15;10.45;;;23.00;99.90;;;;;;6398747;23;20326;-79
2023/10/10 09:34:40;;;;;;;11.82;10.73;;;22.40;99.90;;;;;;6397759;23;20009;-79
2023/10/10 09:37:17;;;;;;;16.55;11.43;;;22.40;99.90;;;;;;6398418;23;20079;-78
2023/10/10 09:39:55;;;;;;;12.38;10.07;;;23.00;99.90;;;;;;6398586;23;20021;-78
2023/10/10 09:42:45;;;;;;;13.02;10.80;;;23.30;99.90;;;;;;6398181;23;20009;-80
2023/10/10 09:48:04;;;;;;;12.75;8.23;;;23.80;99.90;;;;;;6398969;23;20357;-79
2023/10/10 09:50:45;;;;;;;10.48;9.20;;;23.60;99.90;;;;;;6398921;23;20080;-81
2023/10/10 09:53:19;;;;;;;10.43;7.95;;;24.00;99.90;;;;;;6398154;23;20001;-78
2023/10/10 09:55:53;;;;;;;10.15;7.97;;;24.10;99.90;;;;;;6398241;23;20318;-79
2023/10/10 09:58:26;;;;;;;10.52;8.80;;;23.90;99.90;;;;;;6398316;23;20028;-78
2023/10/10 10:01:04;;;;;;;13.90;8.60;;;24.10;99.90;;;;;;6398405;23;20719;-80
2023/10/10 10:03:49;;;;;;;13.70;7.78;;;24.20;99.90;;;;;;6398023;23;20044;-80
2023/10/10 10:06:50;;;;;;;12.63;7.65;;;23.80;99.90;;;;;;6398649;23;20013;-77
2023/10/10 10:09:45;;;;;;;8.75;7.57;;;24.20;99.90;;;;;;6398472;23;20005;-79
2023/10/10 10:12:41;;;;;;;14.77;8.18;;;24.20;99.90;;;;;;6398683;23;20440;-79
2023/10/10 10:15:48;;;;;;;11.73;7.45;;;23.90;99.90;;;;;;6372135;23;20029;-79
2023/10/10 10:18:29;;;;;;;8.50;7.60;;;24.20;99.90;;;;;;6398997;23;20013;-80
2023/10/10 10:23:55;;;;;;;12.17;7.80;;;23.90;99.90;;;;;;6409551;23;20035;-78
2023/10/10 10:26:34;;;;;;;7.70;7.00;;;24.30;99.90;;;;;;6398843;23;20009;-80
2023/10/10 10:29:15;;;;;;;12.20;7.97;;;24.20;99.90;;;;;;6372318;23;20007;-80
2023/10/10 10:31:51;;;;;;;13.60;7.70;;;24.20;99.90;;;;;;6398928;23;20032;-80
2023/10/10 10:34:45;;;;;;;10.45;8.80;;;24.30;99.90;;;;;;6372456;23;20087;-79
2023/10/10 10:37:23;;;;;;;9.85;7.50;;;23.90;99.90;;;;;;6398663;23;20321;-79
2023/10/10 10:42:53;;;;;;;10.32;6.85;;;23.60;99.90;;;;;;6409181;23;20080;-78
2023/10/10 10:45:35;;;;;;;16.40;7.68;;;24.00;99.90;;;;;;6398715;23;20005;-79
2023/10/10 10:48:20;;;;;;;10.75;7.28;;;24.10;99.90;;;;;;6372155;23;20015;-79
2023/10/10 10:51:03;;;;;;;10.73;7.25;;;23.50;99.90;;;;;;6398984;23;19997;-79
2023/10/10 10:53:40;;;;;;;9.98;7.35;;;23.90;99.90;;;;;;6398935;23;20303;-79
2023/10/10 11:01:27;;;;;;;11.30;7.63;;;24.00;99.90;;;;;;6408953;23;20005;-79
2023/10/10 11:03:58;;;;;;;9.60;7.00;;;23.90;99.90;;;;;;6398456;23;20427;-79
2023/10/10 11:06:30;;;;;;;7.82;7.03;;;24.00;99.90;;;;;;6373805;23;20473;-79
2023/10/10 11:09:23;;;;;;;12.77;7.18;;;24.10;99.90;;;;;;6374386;23;20005;-79
2023/10/10 11:12:01;;;;;;;8.43;7.57;;;24.10;99.90;;;;;;6400798;23;20447;-79
2023/10/10 11:14:44;;;;;;;12.23;7.50;;;24.00;99.90;;;;;;6400670;23;20310;-80
2023/10/10 11:17:17;;;;;;;7.45;6.75;;;24.30;99.90;;;;;;6400444;23;20001;-80
2023/10/10 11:19:53;;;;;;;11.45;6.30;;;23.80;99.90;;;;;;6400440;23;20001;-80
2023/10/10 11:22:39;;;;;;;9.15;6.50;;;24.20;99.90;;;;;;6400691;23;20001;-79
2023/10/10 11:25:21;;;;;;;9.68;6.53;;;23.90;99.90;;;;;;6400313;23;20441;-79
2023/10/10 11:27:52;;;;;;;7.30;5.80;;;23.90;99.90;;;;;;6400540;23;20012;-79
2023/10/10 11:30:25;;;;;;;6.30;5.47;;;24.00;99.90;;;;;;6400380;23;20410;-80
2023/10/10 11:35:48;;;;;;;6.90;4.78;;;24.10;99.90;;;;;;6400416;23;20016;-79
2023/10/10 11:38:34;;;;;;;12.07;5.80;;;24.10;99.90;;;;;;6400264;23;20001;-80
2023/10/10 11:41:08;;;;;;;10.32;5.95;;;24.20;99.90;;;;;;6373723;23;20009;-79
2023/10/10 11:44:04;;;;;;;12.15;5.82;;;24.10;99.90;;;;;;6400116;23;20429;-80
2023/10/10 11:46:38;;;;;;;10.80;6.43;;;24.20;99.90;;;;;;6400285;23;20091;-80
2023/10/10 11:49:16;;;;;;;20.15;6.63;;;23.90;99.90;;;;;;6400139;23;20024;-79
2023/10/10 11:51:47;;;;;;;9.32;6.35;;;24.20;99.90;;;;;;6373857;23;20005;-79
2023/10/10 11:54:25;;;;;;;6.35;5.75;;;24.30;99.90;;;;;;6373675;23;20005;-79
2023/10/10 11:56:56;;;;;;;11.93;6.70;;;24.60;99.90;;;;;;6400397;23;20310;-79
2023/10/10 11:59:27;;;;;;;8.13;6.45;;;24.60;99.90;;;;;;6400186;23;20001;-79
2023/10/10 12:02:07;;;;;;;16.50;7.03;;;24.40;99.90;;;;;;6374048;23;20436;-80
2023/10/10 12:04:39;;;;;;;;;;;24.00;99.90;;;;;;6400591;23;20017;-80
2023/10/10 12:07:09;;;;;;;9.68;5.95;;;23.80;99.90;;;;;;6400098;23;19915;-79
2023/10/10 12:09:44;;;;;;;9.73;5.55;;;23.50;99.90;;;;;;6400047;23;20385;-79
2023/10/10 12:12:16;;;;;;;10.52;5.88;;;23.90;99.90;;;;;;6400064;23;20012;-80
2023/10/10 12:14:50;;;;;;;15.70;6.05;;;23.90;99.90;;;;;;6373764;23;20001;-80
2023/10/10 12:17:21;;;;;;;8.00;6.57;;;24.20;99.90;;;;;;6399719;23;20028;-81
2023/10/10 12:19:51;;;;;;;7.45;6.53;;;24.00;99.90;;;;;;6399758;23;20337;-80
2023/10/10 12:22:26;;;;;;;13.38;6.00;;;24.30;99.90;;;;;;6399620;23;20047;-79
2023/10/10 12:24:57;;;;;;;9.15;6.72;;;24.00;99.90;;;;;;6373545;23;20473;-80
2023/10/10 12:27:30;;;;;;;9.88;6.55;;;24.00;99.90;;;;;;6399467;23;20334;-80
2023/10/10 12:30:00;;;;;;;11.15;5.70;;;23.80;99.90;;;;;;6399797;23;20051;-79
2023/10/10 12:32:34;;;;;;;8.90;5.90;;;23.80;99.90;;;;;;6373279;23;20430;-79
2023/10/10 12:35:10;;;;;;;11.48;6.05;;;23.90;99.90;;;;;;6399671;23;20004;-79
2023/10/10 12:37:44;;;;;;;6.22;5.38;;;23.80;99.90;;;;;;6399622;23;20001;-79
2023/10/10 12:40:15;;;;;;;8.82;5.53;;;23.80;99.90;;;;;;6399399;23;19997;-82
2023/10/10 12:42:45;;;;;;;6.43;5.32;;;23.60;99.90;;;;;;6399610;23;20009;-84
2023/10/10 12:45:17;;;;;;;6.75;5.80;;;23.80;99.90;;;;;;6399488;23;19997;-89
2023/10/10 12:47:48;;;;;;;7.13;5.70;;;23.70;99.90;;;;;;6373127;23;20009;-88
2023/10/10 12:50:26;;;;;;;7.07;5.20;;;23.90;99.90;;;;;;6373289;23;20430;-89
2023/10/10 12:53:07;;;;;;;8.18;5.13;;;23.70;99.90;;;;;;6373123;23;20302;-84
2023/10/10 12:55:48;;;;;;;9.18;5.35;;;23.50;99.90;;;;;;6397989;23;20059;-83
2023/10/10 12:58:22;;;;;;;8.93;4.97;;;23.70;99.90;;;;;;6373255;23;20330;-83
2023/10/10 13:00:53;;;;;;;9.73;5.35;;;23.40;99.90;;;;;;6399582;23;20025;-83
2023/10/10 13:03:29;;;;;;;9.35;4.97;;;23.50;99.90;;;;;;6399129;23;20441;-82
2023/10/10 13:06:03;;;;;;;6.60;5.60;;;23.40;99.90;;;;;;6373215;23;20020;-83
2023/10/10 13:09:08;;;;;;;7.18;5.63;;;23.50;99.90;;;;;;6399376;23;19997;-79
2023/10/10 13:11:43;;;;;;;8.57;4.85;;;23.00;99.90;;;;;;6393838;23;20005;-82
2023/10/10 13:14:15;;;;;;;9.10;4.72;;;23.20;99.90;;;;;;6373213;23;20040;-88
2023/10/10 13:19:20;;;;;;;9.35;5.30;;;23.40;99.90;;;;;;6400320;23;20551;-86
2023/10/10 13:21:52;;;;;;;10.02;5.43;;;23.40;99.90;;;;;;6373377;23;20013;-88
2023/10/10 13:24:24;;;;;;;7.78;5.20;;;23.30;99.90;;;;;;6373087;23;20055;-87
2023/10/10 13:26:55;;;;;;;7.43;5.30;;;23.30;99.90;;;;;;6372729;23;20013;-83
2023/10/10 13:29:26;;;;;;;8.88;5.32;;;23.10;99.90;;;;;;6399184;23;20001;-91
2023/10/10 13:31:57;;;;;;;8.25;5.13;;;22.80;99.90;;;;;;6399367;23;20055;-87
2023/10/10 13:34:28;;;;;;;8.23;5.68;;;22.30;99.90;;;;;;6399334;23;20330;-86
2023/10/10 13:36:59;;;;;;;10.02;5.25;;;22.50;99.90;;;;;;6372413;23;20009;-86
2023/10/10 13:39:43;;;;;;;7.50;5.30;;;22.70;99.90;;;;;;6372701;23;20028;-84
2023/10/10 13:42:20;;;;;;;9.48;5.25;;;22.70;99.90;;;;;;6372521;23;20009;-83
2023/10/10 13:45:00;;;;;;;7.15;5.90;;;22.20;99.90;;;;;;6372654;23;20005;-83
2023/10/10 13:47:31;;;;;;;8.95;5.82;;;22.40;99.90;;;;;;6372507;23;20099;-85
2023/10/10 13:52:51;;;;;;;10.43;5.50;;;22.10;99.90;;;;;;6399092;23;20784;-84
2023/10/10 13:55:23;;;;;;;12.45;6.00;;;22.40;99.90;;;;;;6372547;23;20001;-84
2023/10/10 13:57:54;;;;;;;8.10;6.15;;;21.90;99.90;;;;;;6372707;23;20448;-85
2023/10/10 14:00:29;;;;;;;9.13;5.82;;;21.60;99.90;;;;;;6372137;23;20001;-86
2023/10/10 14:03:03;;;;;;;8.45;6.68;;;21.80;99.90;;;;;;6398488;23;20017;-85
2023/10/10 14:05:37;;;;;;;9.73;6.60;;;21.90;99.90;;;;;;6398869;23;20017;-86
2023/10/10 14:08:17;;;;;;;8.52;5.93;;;21.70;99.90;;;;;;6398755;23;20001;-85
2023/10/10 14:10:50;;;;;;;6.95;5.25;;;21.80;99.90;;;;;;6372684;23;20005;-85
2023/10/10 14:13:21;;;;;;;9.57;5.28;;;21.40;99.90;;;;;;6399099;23;20012;-85
2023/10/10 14:15:57;;;;;;;6.32;5.30;;;21.50;99.90;;;;;;6372586;23;20445;-86
2023/10/10 14:18:42;;;;;;;8.55;5.30;;;21.60;99.90;;;;;;6372831;23;20006;-85
2023/10/10 14:21:14;;;;;;;12.38;5.35;;;21.40;99.90;;;;;;6399231;23;20062;-86
2023/10/10 14:23:45;;;;;;;5.88;5.18;;;21.20;99.90;;;;;;6372755;23;20001;-86
2023/10/10 14:26:26;;;;;;;7.90;5.10;;;20.90;99.90;;;;;;6399187;23;20016;-86
2023/10/10 14:29:04;;;;;;;10.48;5.28;;;21.00;99.90;;;;;;6399073;23;20001;-86
2023/10/10 14:31:45;;;;;;;9.63;5.82;;;21.20;99.90;;;;;;6399051;23;20005;-86
2023/10/10 14:34:24;;;;;;;9.35;7.25;;;21.10;99.90;;;;;;6372530;23;20017;-86
2023/10/10 14:36:55;;;;;;;;;;;21.00;99.90;;;;;;6373097;23;20012;-86
2023/10/10 14:39:29;;;;;;;8.75;6.40;;;21.30;99.90;;;;;;6373450;23;19900;-85
2023/10/10 14:42:01;;;;;;;7.30;5.57;;;20.90;99.90;;;;;;6400913;23;20071;-85
2023/10/10 14:44:32;;;;;;;7.57;5.47;;;20.90;99.90;;;;;;6400747;23;20036;-85
2023/10/10 14:47:04;;;;;;;6.57;5.50;;;20.90;99.90;;;;;;6400537;23;20009;-86
2023/10/10 14:49:38;;;;;;;8.65;7.78;;;20.50;99.90;;;;;;6374140;23;20005;-84
2023/10/10 14:52:11;;;;;;;9.07;7.72;;;20.50;99.90;;;;;;6374343;23;20452;-86
2023/10/10 14:54:48;;;;;;;9.32;6.47;;;20.40;99.90;;;;;;6400663;23;20005;-88
2023/10/10 14:57:28;;;;;;;8.50;5.82;;;20.00;99.90;;;;;;6400547;23;20317;-83
2023/10/10 14:59:58;;;;;;;9.48;5.55;;;20.10;99.90;;;;;;6400320;23;20299;-86
2023/10/10 15:02:29;;;;;;;10.65;6.78;;;20.20;99.90;;;;;;6373886;23;20009;-85
2023/10/10 15:05:09;;;;;;;11.32;7.63;;;20.30;99.90;;;;;;6400221;23;20021;-85
2023/10/10 15:07:41;;;;;;;15.10;7.57;;;20.20;99.90;;;;;;6400266;23;20068;-85
2023/10/10 15:10:13;;;;;;;9.55;8.65;;;20.10;99.90;;;;;;6374606;23;20008;-85
2023/10/10 15:12:47;;;;;;;9.60;8.68;;;19.80;99.90;;;;;;6374382;23;20073;-84
2023/10/10 15:15:18;;;;;;;12.32;10.57;;;19.80;99.90;;;;;;6400636;23;20004;-84
2023/10/10 15:17:49;;;;;;;11.85;10.88;;;19.80;99.90;;;;;;6374403;23;20009;-85
2023/10/10 15:20:20;;;;;;;13.77;12.77;;;19.40;99.90;;;;;;6400636;23;20005;-85
2023/10/10 15:22:51;;;;;;;17.80;10.40;;;19.40;99.90;;;;;;6401321;23;20005;-85
2023/10/10 15:25:22;;;;;;;11.65;10.60;;;19.20;99.90;;;;;;6400351;23;20001;-84
2023/10/10 15:27:54;;;;;;;397.58;51.33;;;19.10;99.90;;;;;;6400406;23;20456;-85
2023/10/10 15:30:25;;;;;;;42.83;12.13;;;19.00;99.90;;;;;;6398907;23;20001;-87
2023/10/10 15:33:01;;;;;;;10.93;9.85;;;19.00;99.90;;;;;;6398106;23;20566;-88
2023/10/10 15:35:38;;;;;;;9.50;8.07;;;18.80;99.90;;;;;;6373834;23;20009;-88
2023/10/10 15:38:11;;;;;;;10.00;8.55;;;18.80;99.90;;;;;;6374578;23;20481;-85
2023/10/10 15:40:43;;;;;;;10.27;8.38;;;18.50;99.90;;;;;;6400421;23;20445;-89
2023/10/10 15:43:14;;;;;;;12.35;10.32;;;18.50;99.90;;;;;;6400230;23;20012;-87
2023/10/10 15:45:45;;;;;;;11.10;9.32;;;18.30;99.90;;;;;;6372894;23;20009;-88
2023/10/10 15:48:22;;;;;;;10.45;7.45;;;18.40;99.90;;;;;;6399695;23;20354;-87